sensor_id;sensor_type;location;lat;lon;timestamp;pressure;altitude;pressure_sealevel;temperature;humidity
23229;BME280;11783;50.350;6.576;2023-05-10T00:00:55;95534.78;;;12.77;100.00
23229;BME280;11783;50.350;6.576;2023-05-10T00:03:20;95530.25;;;12.77;100.00
23229;BME280;11783;50.350;6.576;2023-05-10T00:05:45;95536.94;;;12.74;100.00
23229;BME280;11783;50.350;6.576;2023-05-10T00:08:11;95536.41;;;12.72;100.00
23229;BME280;11783;50.350;6.576;2023-05-10T00:10:36;95532.66;;;12.73;100.00
23229;BME280;11783;50.350;6.576;2023-05-10T00:13:02;95538.81;;;12.74;100.00
23229;BME280;11783;50.350;6.576;2023-05-10T00:15:28;95535.31;;;12.79;100.00
23229;BME280;11783;50.350;6.576;2023-05-10T00:17:53;95527.31;;;12.79;100.00
23229;BME280;11783;50.350;6.576;2023-05-10T00:20:18;95528.38;;;12.78;100.00
23229;BME280;11783;50.350;6.576;2023-05-10T00:22:44;95518.03;;;12.71;100.00
23229;BME280;11783;50.350;6.576;2023-05-10T00:25:09;95518.84;;;12.66;100.00
23229;BME280;11783;50.350;6.576;2023-05-10T00:27:35;95518.81;;;12.71;100.00
23229;BME280;11783;50.350;6.576;2023-05-10T00:30:01;95516.44;;;12.70;100.00
23229;BME280;11783;50.350;6.576;2023-05-10T00:32:26;95519.13;;;12.60;100.00
23229;BME280;11783;50.350;6.576;2023-05-10T00:34:51;95516.69;;;12.63;100.00
23229;BME280;11783;50.350;6.576;2023-05-10T00:37:17;95516.97;;;12.62;100.00
23229;BME280;11783;50.350;6.576;2023-05-10T00:39:42;95522.59;;;12.65;100.00
23229;BME280;11783;50.350;6.576;2023-05-10T00:42:07;95519.38;;;12.68;100.00
23229;BME280;11783;50.350;6.576;2023-05-10T00:44:32;95519.06;;;12.75;100.00
23229;BME280;11783;50.350;6.576;2023-05-10T00:46:59;95521.47;;;12.77;100.00
23229;BME280;11783;50.350;6.576;2023-05-10T00:49:24;95514.78;;;12.79;100.00
23229;BME280;11783;50.350;6.576;2023-05-10T00:51:50;95515.28;;;12.81;100.00
23229;BME280;11783;50.350;6.576;2023-05-10T00:54:16;95524.88;;;12.87;100.00
23229;BME280;11783;50.350;6.576;2023-05-10T00:56:41;95522.22;;;12.87;100.00
23229;BME280;11783;50.350;6.576;2023-05-10T00:59:08;95525.94;;;12.91;100.00
23229;BME280;11783;50.350;6.576;2023-05-10T01:01:34;95522.22;;;12.87;100.00
23229;BME280;11783;50.350;6.576;2023-05-10T01:04:01;95528.59;;;12.91;100.00
23229;BME280;11783;50.350;6.576;2023-05-10T01:06:26;95517.94;;;12.91;100.00
23229;BME280;11783;50.350;6.576;2023-05-10T01:08:52;95519.84;;;12.86;100.00
23229;BME280;11783;50.350;6.576;2023-05-10T01:11:18;95516.09;;;12.87;100.00
23229;BME280;11783;50.350;6.576;2023-05-10T01:13:47;95525.69;;;12.83;100.00
23229;BME280;11783;50.350;6.576;2023-05-10T01:16:15;95516.88;;;12.82;100.00
23229;BME280;11783;50.350;6.576;2023-05-10T01:18:41;95516.66;;;12.84;100.00
23229;BME280;11783;50.350;6.576;2023-05-10T01:21:31;95528.09;;;12.79;100.00
23229;BME280;11783;50.350;6.576;2023-05-10T01:26:44;95523.34;;;12.71;100.00
23229;BME280;11783;50.350;6.576;2023-05-10T01:29:47;95524.69;;;12.73;100.00
23229;BME280;11783;50.350;6.576;2023-05-10T01:37:39;95530.22;;;12.82;100.00
23229;BME280;11783;50.350;6.576;2023-05-10T01:40:30;95524.09;;;12.82;100.00
23229;BME280;11783;50.350;6.576;2023-05-10T01:43:00;95527.59;;;12.77;100.00
23229;BME280;11783;50.350;6.576;2023-05-10T01:45:43;95525.75;;;12.72;100.00
23229;BME280;11783;50.350;6.576;2023-05-10T01:48:14;95527.59;;;12.77;100.00
23229;BME280;11783;50.350;6.576;2023-05-10T01:50:43;95536.66;;;12.76;100.00
23229;BME280;11783;50.350;6.576;2023-05-10T01:53:10;95536.66;;;12.76;100.00
23229;BME280;11783;50.350;6.576;2023-05-10T01:55:48;95536.66;;;12.76;100.00
23229;BME280;11783;50.350;6.576;2023-05-10T01:58:19;95537.19;;;12.78;100.00
23229;BME280;11783;50.350;6.576;2023-05-10T02:00:46;95534.78;;;12.77;100.00
23229;BME280;11783;50.350;6.576;2023-05-10T02:03:13;95535.63;;;12.72;100.00
23229;BME280;11783;50.350;6.576;2023-05-10T02:05:41;95535.63;;;12.72;100.00
23229;BME280;11783;50.350;6.576;2023-05-10T02:08:09;95540.16;;;12.71;100.00
23229;BME280;11783;50.350;6.576;2023-05-10T02:10:36;95535.38;;;12.68;100.00
23229;BME280;11783;50.350;6.576;2023-05-10T02:13:02;95539.09;;;12.67;100.00
23229;BME280;11783;50.350;6.576;2023-05-10T02:15:29;95553.50;;;12.66;100.00
23229;BME280;11783;50.350;6.576;2023-05-10T02:17:56;95545.75;;;12.70;100.00
23229;BME280;11783;50.350;6.576;2023-05-10T02:20:23;95544.16;;;12.69;100.00
23229;BME280;11783;50.350;6.576;2023-05-10T02:22:50;95552.94;;;12.74;100.00
23229;BME280;11783;50.350;6.576;2023-05-10T02:25:18;95550.28;;;12.69;100.00
23229;BME280;11783;50.350;6.576;2023-05-10T02:27:44;95560.44;;;12.67;100.00
23229;BME280;11783;50.350;6.576;2023-05-10T02:30:12;95554.03;;;12.68;100.00
23229;BME280;11783;50.350;6.576;2023-05-10T02:32:38;95553.22;;;12.68;100.00
23229;BME280;11783;50.350;6.576;2023-05-10T02:35:04;95564.94;;;12.72;100.00
23229;BME280;11783;50.350;6.576;2023-05-10T02:37:31;95564.16;;;12.71;100.00
23229;BME280;11783;50.350;6.576;2023-05-10T02:39:58;95565.75;;;12.67;100.00
23229;BME280;11783;50.350;6.576;2023-05-10T02:42:26;95571.63;;;12.69;100.00
23229;BME280;11783;50.350;6.576;2023-05-10T02:44:54;95564.22;;;12.46;100.00
23229;BME280;11783;50.350;6.576;2023-05-10T02:47:21;95558.63;;;12.48;100.00
23229;BME280;11783;50.350;6.576;2023-05-10T02:49:47;95559.94;;;12.45;100.00
23229;BME280;11783;50.350;6.576;2023-05-10T02:52:16;95568.75;;;12.40;100.00
23229;BME280;11783;50.350;6.576;2023-05-10T02:54:45;95568.50;;;12.37;100.00
23229;BME280;11783;50.350;6.576;2023-05-10T02:57:16;95565.06;;;12.31;100.00
23229;BME280;11783;50.350;6.576;2023-05-10T02:59:44;95565.84;;;12.37;100.00
23229;BME280;11783;50.350;6.576;2023-05-10T03:02:12;95562.66;;;12.30;100.00
23229;BME280;11783;50.350;6.576;2023-05-10T03:04:37;95561.06;;;12.29;100.00
23229;BME280;11783;50.350;6.576;2023-05-10T03:07:03;95562.94;;;12.18;100.00
23229;BME280;11783;50.350;6.576;2023-05-10T03:09:29;95569.63;;;11.95;100.00
23229;BME280;11783;50.350;6.576;2023-05-10T03:12:15;95560.84;;;11.79;100.00
23229;BME280;11783;50.350;6.576;2023-05-10T03:15:05;95574.16;;;11.85;100.00
23229;BME280;11783;50.350;6.576;2023-05-10T03:17:51;95578.41;;;11.80;100.00
23229;BME280;11783;50.350;6.576;2023-05-10T03:20:46;95572.00;;;11.87;100.00
23229;BME280;11783;50.350;6.576;2023-05-10T03:23:27;95572.56;;;11.83;100.00
23229;BME280;11783;50.350;6.576;2023-05-10T03:25:52;95569.09;;;11.83;100.00
23229;BME280;11783;50.350;6.576;2023-05-10T03:28:18;95569.88;;;11.83;100.00
23229;BME280;11783;50.350;6.576;2023-05-10T03:30:45;95574.94;;;11.85;100.00
23229;BME280;11783;50.350;6.576;2023-05-10T03:33:11;95582.16;;;11.79;100.00
23229;BME280;11783;50.350;6.576;2023-05-10T03:35:37;95572.81;;;11.77;100.00
23229;BME280;11783;50.350;6.576;2023-05-10T03:38:03;95579.22;;;11.81;100.00
23229;BME280;11783;50.350;6.576;2023-05-10T03:40:28;95584.53;;;11.81;100.00
23229;BME280;11783;50.350;6.576;2023-05-10T03:42:56;95588.00;;;11.81;100.00
23229;BME280;11783;50.350;6.576;2023-05-10T03:45:21;95586.66;;;11.89;100.00
23229;BME280;11783;50.350;6.576;2023-05-10T03:47:47;95582.97;;;11.90;100.00
23229;BME280;11783;50.350;6.576;2023-05-10T03:50:12;95583.22;;;11.94;100.00
23229;BME280;11783;50.350;6.576;2023-05-10T03:52:37;95587.72;;;12.03;100.00
23229;BME280;11783;50.350;6.576;2023-05-10T03:55:05;95589.84;;;12.01;100.00
23229;BME280;11783;50.350;6.576;2023-05-10T03:57:31;95590.13;;;12.00;100.00
23229;BME280;11783;50.350;6.576;2023-05-10T03:59:56;95586.66;;;11.89;100.00
23229;BME280;11783;50.350;6.576;2023-05-10T04:02:22;95594.66;;;11.84;100.00
23229;BME280;11783;50.350;6.576;2023-05-10T04:04:47;95591.47;;;11.92;100.00
23229;BME280;11783;50.350;6.576;2023-05-10T04:07:13;95585.59;;;11.85;100.00
23229;BME280;11783;50.350;6.576;2023-05-10T04:09:38;95588.00;;;11.87;100.00
23229;BME280;11783;50.350;6.576;2023-05-10T04:12:04;95591.44;;;11.87;100.00
23229;BME280;11783;50.350;6.576;2023-05-10T04:14:29;95584.50;;;11.76;100.00
23229;BME280;11783;50.350;6.576;2023-05-10T04:16:55;95599.94;;;11.69;100.00
23229;BME280;11783;50.350;6.576;2023-05-10T04:19:20;95587.41;;;11.44;100.00
23229;BME280;11783;50.350;6.576;2023-05-10T04:21:45;95587.94;;;11.46;100.00
23229;BME280;11783;50.350;6.576;2023-05-10T04:24:11;95585.81;;;11.58;100.00
23229;BME280;11783;50.350;6.576;2023-05-10T04:26:36;95589.81;;;11.61;100.00
23229;BME280;11783;50.350;6.576;2023-05-10T04:29:02;95586.63;;;11.69;100.00
23229;BME280;11783;50.350;6.576;2023-05-10T04:31:27;95593.03;;;11.73;100.00
23229;BME280;11783;50.350;6.576;2023-05-10T04:33:53;95598.34;;;11.78;100.00
23229;BME280;11783;50.350;6.576;2023-05-10T04:36:18;95596.75;;;11.67;100.00
23229;BME280;11783;50.350;6.576;2023-05-10T04:38:43;95597.28;;;11.59;100.00
23229;BME280;11783;50.350;6.576;2023-05-10T04:41:10;95593.00;;;11.68;100.00
23229;BME280;11783;50.350;6.576;2023-05-10T04:43:36;95601.25;;;11.61;100.00
23229;BME280;11783;50.350;6.576;2023-05-10T04:46:02;95594.09;;;11.57;100.00
23229;BME280;11783;50.350;6.576;2023-05-10T04:48:27;95595.41;;;11.59;100.00
23229;BME280;11783;50.350;6.576;2023-05-10T04:50:53;95603.66;;;11.68;100.00
23229;BME280;11783;50.350;6.576;2023-05-10T04:53:18;95599.94;;;11.59;100.00
23229;BME280;11783;50.350;6.576;2023-05-10T04:55:43;95595.94;;;11.66;100.00
23229;BME280;11783;50.350;6.576;2023-05-10T04:58:09;95594.59;;;11.69;100.00
23229;BME280;11783;50.350;6.576;2023-05-10T05:00:34;95591.91;;;11.48;100.00
23229;BME280;11783;50.350;6.576;2023-05-10T05:03:00;95590.88;;;11.55;100.00
23229;BME280;11783;50.350;6.576;2023-05-10T05:05:25;95594.09;;;11.57;100.00
23229;BME280;11783;50.350;6.576;2023-05-10T05:07:51;95603.63;;;11.52;100.00
23229;BME280;11783;50.350;6.576;2023-05-10T05:10:16;95597.78;;;11.45;100.00
23229;BME280;11783;50.350;6.576;2023-05-10T05:12:42;95601.75;;;11.38;100.00
23229;BME280;11783;50.350;6.576;2023-05-10T05:15:07;95602.53;;;11.33;100.00
23229;BME280;11783;50.350;6.576;2023-05-10T05:17:34;95602.28;;;11.40;100.00
23229;BME280;11783;50.350;6.576;2023-05-10T05:19:59;95610.81;;;11.52;100.00
23229;BME280;11783;50.350;6.576;2023-05-10T05:22:25;95611.63;;;11.47;100.00
23229;BME280;11783;50.350;6.576;2023-05-10T05:24:56;95628.66;;;11.51;100.00
23229;BME280;11783;50.350;6.576;2023-05-10T05:27:23;95619.06;;;11.40;100.00
23229;BME280;11783;50.350;6.576;2023-05-10T05:29:52;95626.47;;;11.33;100.00
23229;BME280;11783;50.350;6.576;2023-05-10T05:32:18;95621.72;;;11.50;100.00
23229;BME280;11783;50.350;6.576;2023-05-10T05:34:47;95632.13;;;11.67;100.00
23229;BME280;11783;50.350;6.576;2023-05-10T05:37:19;95636.44;;;11.73;100.00
23229;BME280;11783;50.350;6.576;2023-05-10T05:39:46;95638.06;;;11.79;100.00
23229;BME280;11783;50.350;6.576;2023-05-10T05:42:12;95641.25;;;11.81;100.00
23229;BME280;11783;50.350;6.576;2023-05-10T05:44:37;95636.72;;;11.87;100.00
23229;BME280;11783;50.350;6.576;2023-05-10T05:47:03;95636.97;;;11.80;100.00
23229;BME280;11783;50.350;6.576;2023-05-10T05:49:29;95643.59;;;11.58;100.00
23229;BME280;11783;50.350;6.576;2023-05-10T05:51:54;95641.44;;;11.65;100.00
23229;BME280;11783;50.350;6.576;2023-05-10T05:54:19;95642.56;;;11.79;100.00
23229;BME280;11783;50.350;6.576;2023-05-10T05:56:45;95641.78;;;11.89;100.00
23229;BME280;11783;50.350;6.576;2023-05-10T05:59:11;95643.66;;;11.93;100.00
23229;BME280;11783;50.350;6.576;2023-05-10T06:01:36;95645.25;;;11.94;100.00
23229;BME280;11783;50.350;6.576;2023-05-10T06:04:02;95647.91;;;11.79;100.00
23229;BME280;11783;50.350;6.576;2023-05-10T06:06:28;95650.03;;;11.87;100.00
23229;BME280;11783;50.350;6.576;2023-05-10T06:08:54;95651.13;;;11.91;100.00
23229;BME280;11783;50.350;6.576;2023-05-10T06:11:20;95645.25;;;11.94;100.00
23229;BME280;11783;50.350;6.576;2023-05-10T06:13:46;95651.38;;;12.00;100.00
23229;BME280;11783;50.350;6.576;2023-05-10T06:16:12;95660.44;;;12.04;100.00
23229;BME280;11783;50.350;6.576;2023-05-10T06:18:38;95659.09;;;11.96;100.00
23229;BME280;11783;50.350;6.576;2023-05-10T06:21:03;95662.56;;;11.92;100.00
23229;BME280;11783;50.350;6.576;2023-05-10T06:23:29;95661.50;;;11.93;100.00
23229;BME280;11783;50.350;6.576;2023-05-10T06:25:54;95663.38;;;11.97;100.00
23229;BME280;11783;50.350;6.576;2023-05-10T06:28:19;95665.78;;;12.09;100.00
23229;BME280;11783;50.350;6.576;2023-05-10T06:30:45;95671.38;;;12.12;100.00
23229;BME280;11783;50.350;6.576;2023-05-10T06:33:10;95672.94;;;12.03;100.00
23229;BME280;11783;50.350;6.576;2023-05-10T06:35:35;95677.47;;;11.98;100.00
23229;BME280;11783;50.350;6.576;2023-05-10T06:38:01;95680.16;;;11.93;100.00
23229;BME280;11783;50.350;6.576;2023-05-10T06:40:27;95691.50;;;11.68;100.00
23229;BME280;11783;50.350;6.576;2023-05-10T06:42:52;95689.34;;;11.60;100.00
23229;BME280;11783;50.350;6.576;2023-05-10T06:45:17;95698.69;;;11.62;100.00
23229;BME280;11783;50.350;6.576;2023-05-10T06:47:43;95694.41;;;11.56;100.00
23229;BME280;11783;50.350;6.576;2023-05-10T06:50:09;95683.97;;;11.44;100.00
23229;BME280;11783;50.350;6.576;2023-05-10T06:52:35;95693.28;;;11.42;100.00
23229;BME280;11783;50.350;6.576;2023-05-10T06:55:01;95678.66;;;11.44;100.00
23229;BME280;11783;50.350;6.576;2023-05-10T06:57:26;95686.66;;;11.44;100.00
23229;BME280;11783;50.350;6.576;2023-05-10T06:59:52;95684.50;;;11.36;100.00
23229;BME280;11783;50.350;6.576;2023-05-10T07:02:17;95689.81;;;11.36;100.00
23229;BME280;11783;50.350;6.576;2023-05-10T07:04:43;95694.31;;;11.31;100.00
23229;BME280;11783;50.350;6.576;2023-05-10T07:07:08;95697.00;;;11.36;100.00
23229;BME280;11783;50.350;6.576;2023-05-10T07:09:34;95696.47;;;11.39;100.00
23229;BME280;11783;50.350;6.576;2023-05-10T07:11:59;95707.13;;;11.39;100.00
23229;BME280;11783;50.350;6.576;2023-05-10T07:14:24;95704.94;;;11.31;100.00
23229;BME280;11783;50.350;6.576;2023-05-10T07:16:50;95704.47;;;11.39;100.00
23229;BME280;11783;50.350;6.576;2023-05-10T07:19:15;95704.25;;;11.61;100.00
23229;BME280;11783;50.350;6.576;2023-05-10T07:21:40;95708.25;;;11.63;100.00
23229;BME280;11783;50.350;6.576;2023-05-10T07:24:08;95722.88;;;11.56;100.00
23229;BME280;11783;50.350;6.576;2023-05-10T07:26:33;95721.81;;;11.57;100.00
23229;BME280;11783;50.350;6.576;2023-05-10T07:28:59;95726.63;;;11.65;100.00
23229;BME280;11783;50.350;6.576;2023-05-10T07:31:24;95721.03;;;11.66;100.00
23229;BME280;11783;50.350;6.576;2023-05-10T07:33:49;95717.84;;;11.69;100.00
23229;BME280;11783;50.350;6.576;2023-05-10T07:36:15;95726.97;;;11.78;100.00
23229;BME280;11783;50.350;6.576;2023-05-10T07:38:40;95723.22;;;11.74;100.00
23229;BME280;11783;50.350;6.576;2023-05-10T07:41:05;95726.38;;;11.66;100.00
23229;BME280;11783;50.350;6.576;2023-05-10T07:43:31;95722.09;;;11.70;100.00
23229;BME280;11783;50.350;6.576;2023-05-10T07:45:56;95722.41;;;11.74;100.00
23229;BME280;11783;50.350;6.576;2023-05-10T07:48:22;95725.84;;;11.69;100.00
23229;BME280;11783;50.350;6.576;2023-05-10T07:50:47;95727.69;;;11.64;100.00
23229;BME280;11783;50.350;6.576;2023-05-10T07:53:13;95733.09;;;11.79;100.00
23229;BME280;11783;50.350;6.576;2023-05-10T07:55:38;95738.94;;;11.81;100.00
23229;BME280;11783;50.350;6.576;2023-05-10T07:58:03;95731.00;;;12.01;100.00
23229;BME280;11783;50.350;6.576;2023-05-10T08:00:29;95735.28;;;12.07;100.00
23229;BME280;11783;50.350;6.576;2023-05-10T08:02:54;95744.31;;;12.01;100.00
23229;BME280;11783;50.350;6.576;2023-05-10T08:05:20;95734.50;;;12.12;100.00
23229;BME280;11783;50.350;6.576;2023-05-10T08:07:45;95732.91;;;12.16;100.00
23229;BME280;11783;50.350;6.576;2023-05-10T08:10:10;95743.56;;;12.26;100.00
23229;BME280;11783;50.350;6.576;2023-05-10T08:12:38;95742.75;;;12.21;100.00
23229;BME280;11783;50.350;6.576;2023-05-10T08:15:04;95744.91;;;12.34;100.00
23229;BME280;11783;50.350;6.576;2023-05-10T08:17:30;95739.84;;;12.37;100.00
23229;BME280;11783;50.350;6.576;2023-05-10T08:19:55;95739.56;;;12.44;100.00
23229;BME280;11783;50.350;6.576;2023-05-10T08:22:21;95748.38;;;12.50;100.00
23229;BME280;11783;50.350;6.576;2023-05-10T08:24:46;95753.72;;;12.50;100.00
23229;BME280;11783;50.350;6.576;2023-05-10T08:27:11;95752.63;;;12.61;100.00
23229;BME280;11783;50.350;6.576;2023-05-10T08:29:37;95754.50;;;12.40;100.00
23229;BME280;11783;50.350;6.576;2023-05-10T08:32:03;95755.56;;;12.44;100.00
23229;BME280;11783;50.350;6.576;2023-05-10T08:34:28;95763.31;;;12.56;100.00
23229;BME280;11783;50.350;6.576;2023-05-10T08:36:53;95757.44;;;12.38;100.00
23229;BME280;11783;50.350;6.576;2023-05-10T08:39:19;95760.09;;;12.33;100.00
23229;BME280;11783;50.350;6.576;2023-05-10T08:41:46;95764.38;;;12.34;100.00
23229;BME280;11783;50.350;6.576;2023-05-10T08:44:12;95765.69;;;12.42;100.00
23229;BME280;11783;50.350;6.576;2023-05-10T08:46:39;95768.34;;;12.42;100.00
23229;BME280;11783;50.350;6.576;2023-05-10T08:49:12;95769.97;;;12.48;100.00
23229;BME280;11783;50.350;6.576;2023-05-10T08:51:40;95767.84;;;12.60;100.00
23229;BME280;11783;50.350;6.576;2023-05-10T08:54:09;95772.13;;;12.66;100.00
23229;BME280;11783;50.350;6.576;2023-05-10T08:56:34;95769.44;;;12.36;100.00
23229;BME280;11783;50.350;6.576;2023-05-10T08:58:59;95778.25;;;12.47;100.00
23229;BME280;11783;50.350;6.576;2023-05-10T09:01:26;95776.91;;;12.54;100.00
23229;BME280;11783;50.350;6.576;2023-05-10T09:03:52;95782.75;;;12.36;100.00
23229;BME280;11783;50.350;6.576;2023-05-10T09:06:18;95792.34;;;12.42;100.00
23229;BME280;11783;50.350;6.576;2023-05-10T09:08:44;95793.16;;;12.37;100.00
23229;BME280;11783;50.350;6.576;2023-05-10T09:11:11;95803.22;;;12.20;100.00
23229;BME280;11783;50.350;6.576;2023-05-10T09:13:37;95793.88;;;12.02;100.00
23229;BME280;11783;50.350;6.576;2023-05-10T09:16:03;95798.34;;;11.87;100.00
23229;BME280;11783;50.350;6.576;2023-05-10T09:18:29;95796.22;;;11.89;100.00
23229;BME280;11783;50.350;6.576;2023-05-10T09:20:55;95800.00;;;12.03;100.00
23229;BME280;11783;50.350;6.576;2023-05-10T09:23:20;95802.66;;;11.98;100.00
23229;BME280;11783;50.350;6.576;2023-05-10T09:25:45;95804.41;;;11.72;100.00
23229;BME280;11783;50.350;6.576;2023-05-10T09:28:11;95806.31;;;11.87;100.00
23229;BME280;11783;50.350;6.576;2023-05-10T09:30:37;95810.38;;;11.99;100.00
23229;BME280;11783;50.350;6.576;2023-05-10T09:33:02;95807.72;;;12.04;100.00
23229;BME280;11783;50.350;6.576;2023-05-10T09:35:30;95812.28;;;12.14;100.00
23229;BME280;11783;50.350;6.576;2023-05-10T09:38:00;95813.34;;;12.18;100.00
23229;BME280;11783;50.350;6.576;2023-05-10T09:40:27;95809.88;;;12.18;100.00
23229;BME280;11783;50.350;6.576;2023-05-10T09:43:03;95812.25;;;12.04;100.00
23229;BME280;11783;50.350;6.576;2023-05-10T09:45:33;95811.75;;;12.17;100.00
23229;BME280;11783;50.350;6.576;2023-05-10T09:48:00;95817.91;;;12.33;100.00
23229;BME280;11783;50.350;6.576;2023-05-10T09:50:26;95812.31;;;12.29;100.00
23229;BME280;11783;50.350;6.576;2023-05-10T09:52:59;95824.31;;;12.42;100.00
23229;BME280;11783;50.350;6.576;2023-05-10T09:58:01;95823.00;;;12.34;100.00
23229;BME280;11783;50.350;6.576;2023-05-10T10:00:27;95818.47;;;12.40;100.00
23229;BME280;11783;50.350;6.576;2023-05-10T10:02:57;95809.66;;;12.39;100.00
23229;BME280;11783;50.350;6.576;2023-05-10T10:07:56;95804.91;;;12.67;100.00
23229;BME280;11783;50.350;6.576;2023-05-10T10:10:22;95807.03;;;12.80;100.00
23229;BME280;11783;50.350;6.576;2023-05-10T10:12:48;95804.63;;;12.99;100.00
23229;BME280;11783;50.350;6.576;2023-05-10T10:15:13;95800.09;;;13.20;100.00
23229;BME280;11783;50.350;6.576;2023-05-10T10:17:39;95807.06;;;13.21;100.00
23229;BME280;11783;50.350;6.576;2023-05-10T10:20:06;95811.28;;;13.32;100.00
23229;BME280;11783;50.350;6.576;2023-05-10T10:22:32;95804.59;;;13.34;100.00
23229;BME280;11783;50.350;6.576;2023-05-10T10:24:58;95817.97;;;13.40;100.00
23229;BME280;11783;50.350;6.576;2023-05-10T10:27:31;95815.28;;;13.40;100.00
23229;BME280;11783;50.350;6.576;2023-05-10T10:30:06;95811.25;;;13.37;100.00
23229;BME280;11783;50.350;6.576;2023-05-10T10:33:06;95809.41;;;13.32;100.00
23229;BME280;11783;50.350;6.576;2023-05-10T10:35:38;95802.19;;;13.33;99.38
23229;BME280;11783;50.350;6.576;2023-05-10T10:38:04;95809.09;;;13.54;100.00
23229;BME280;11783;50.350;6.576;2023-05-10T10:40:33;95808.50;;;13.78;100.00
23229;BME280;11783;50.350;6.576;2023-05-10T10:43:22;95809.25;;;13.83;100.00
23229;BME280;11783;50.350;6.576;2023-05-10T10:46:16;95810.91;;;13.69;100.00
23229;BME280;11783;50.350;6.576;2023-05-10T10:49:08;95810.31;;;13.87;100.00
23229;BME280;11783;50.350;6.576;2023-05-10T10:51:38;95808.16;;;13.94;100.00
23229;BME280;11783;50.350;6.576;2023-05-10T10:54:10;95809.13;;;14.09;100.00
23229;BME280;11783;50.350;6.576;2023-05-10T10:56:36;95801.97;;;14.04;95.66
23229;BME280;11783;50.350;6.576;2023-05-10T10:59:01;95801.09;;;14.19;97.02
23229;BME280;11783;50.350;6.576;2023-05-10T11:01:33;95811.69;;;14.29;96.86
23229;BME280;11783;50.350;6.576;2023-05-10T11:06:36;95803.41;;;14.31;97.27
23229;BME280;11783;50.350;6.576;2023-05-10T11:09:09;95814.66;;;14.33;100.00
23229;BME280;11783;50.350;6.576;2023-05-10T11:11:36;95810.84;;;14.39;92.62
23229;BME280;11783;50.350;6.576;2023-05-10T11:14:06;95808.97;;;14.44;96.19
23229;BME280;11783;50.350;6.576;2023-05-10T11:16:42;95810.50;;;14.56;97.30
23229;BME280;11783;50.350;6.576;2023-05-10T11:19:10;95803.75;;;14.63;95.83
23229;BME280;11783;50.350;6.576;2023-05-10T11:21:46;95807.75;;;14.71;91.94
23229;BME280;11783;50.350;6.576;2023-05-10T11:24:19;95812.03;;;14.67;91.17
23229;BME280;11783;50.350;6.576;2023-05-10T11:26:45;95817.66;;;14.65;88.15
23229;BME280;11783;50.350;6.576;2023-05-10T11:29:12;95813.09;;;14.71;94.94
23229;BME280;11783;50.350;6.576;2023-05-10T11:31:45;95819.72;;;14.78;90.87
23229;BME280;11783;50.350;6.576;2023-05-10T11:34:13;95815.66;;;14.81;94.81
23229;BME280;11783;50.350;6.576;2023-05-10T11:36:51;95825.56;;;14.80;88.94
23229;BME280;11783;50.350;6.576;2023-05-10T11:39:16;95825.72;;;14.60;86.50
23229;BME280;11783;50.350;6.576;2023-05-10T11:41:42;95832.91;;;14.65;84.77
23229;BME280;11783;50.350;6.576;2023-05-10T11:44:09;95829.66;;;14.73;87.80
23229;BME280;11783;50.350;6.576;2023-05-10T11:46:36;95827.72;;;14.78;87.80
23229;BME280;11783;50.350;6.576;2023-05-10T11:49:01;95832.53;;;14.81;89.23
23229;BME280;11783;50.350;6.576;2023-05-10T11:51:32;95828.75;;;14.88;89.49
23229;BME280;11783;50.350;6.576;2023-05-10T11:53:57;95821.59;;;14.78;87.02
23229;BME280;11783;50.350;6.576;2023-05-10T11:56:23;95816.63;;;14.95;91.99
23229;BME280;11783;50.350;6.576;2023-05-10T11:58:53;95815.16;;;15.13;96.92
23229;BME280;11783;50.350;6.576;2023-05-10T12:01:20;95822.09;;;15.14;88.84
23229;BME280;11783;50.350;6.576;2023-05-10T12:03:46;95823.03;;;15.28;93.84
23229;BME280;11783;50.350;6.576;2023-05-10T12:06:11;95822.63;;;15.40;95.02
23229;BME280;11783;50.350;6.576;2023-05-10T12:08:44;95819.38;;;15.19;86.77
23229;BME280;11783;50.350;6.576;2023-05-10T12:11:11;95826.53;;;15.24;87.93
23229;BME280;11783;50.350;6.576;2023-05-10T12:13:38;95837.72;;;15.02;86.00
23229;BME280;11783;50.350;6.576;2023-05-10T12:16:22;95829.97;;;15.00;89.76
23229;BME280;11783;50.350;6.576;2023-05-10T12:18:51;95830.28;;;14.94;87.56
23229;BME280;11783;50.350;6.576;2023-05-10T12:21:18;95831.16;;;14.84;87.46
23229;BME280;11783;50.350;6.576;2023-05-10T12:23:58;95834.34;;;14.86;91.36
23229;BME280;11783;50.350;6.576;2023-05-10T12:26:25;95826.06;;;14.88;93.19
23229;BME280;11783;50.350;6.576;2023-05-10T12:28:53;95836.50;;;14.84;90.65
23229;BME280;11783;50.350;6.576;2023-05-10T12:31:18;95844.00;;;14.82;91.16
23229;BME280;11783;50.350;6.576;2023-05-10T12:33:44;95849.47;;;14.72;89.73
23229;BME280;11783;50.350;6.576;2023-05-10T12:36:11;95856.06;;;14.35;90.02
23229;BME280;11783;50.350;6.576;2023-05-10T12:38:39;95850.72;;;14.35;93.46
23229;BME280;11783;50.350;6.576;2023-05-10T12:41:06;95866.72;;;14.45;91.89
23229;BME280;11783;50.350;6.576;2023-05-10T12:43:32;95863.72;;;14.57;91.99
23229;BME280;11783;50.350;6.576;2023-05-10T12:45:58;95863.41;;;14.64;91.81
23229;BME280;11783;50.350;6.576;2023-05-10T12:48:24;95873.09;;;14.49;90.47
23229;BME280;11783;50.350;6.576;2023-05-10T12:50:49;95871.00;;;14.41;89.75
23229;BME280;11783;50.350;6.576;2023-05-10T12:53:15;95871.84;;;14.32;94.46
23229;BME280;11783;50.350;6.576;2023-05-10T12:55:41;95872.66;;;14.32;93.13
23229;BME280;11783;50.350;6.576;2023-05-10T12:58:07;95868.03;;;14.48;93.85
23229;BME280;11783;50.350;6.576;2023-05-10T13:00:32;95864.75;;;14.61;97.40
23229;BME280;11783;50.350;6.576;2023-05-10T13:02:57;95868.47;;;14.70;94.27
23229;BME280;11783;50.350;6.576;2023-05-10T13:05:23;95862.91;;;14.57;93.19
23229;BME280;11783;50.350;6.576;2023-05-10T13:07:48;95866.31;;;14.67;95.26
23229;BME280;11783;50.350;6.576;2023-05-10T13:10:13;95870.56;;;14.73;91.10